Sachs Harbour Airport, Northwest Territories

Past 24 Hour Conditions

This table is a summary of hourly weather conditions for the past 24 hours. This summary includes the following parameters: temperature, humidity, dew point, wind speed and direction, air pressure, visibility and/or wind chill and humidex.
Date / Time
(MDT)
Conditions Temp (°C) Humidity (%) Dew Point (°C) Wind (km/h) Pressure (kPa) Vis (km) Wind Chill
24 April 2014
00:00 N/A -11 79 -13 ESE 25 102.9 N/A -19
23 April 2014
23:00 N/A -9   69 -14 ESE 19 102.9 N/A -17
22:00 N/A -10 73 -14 ESE 20 102.9 N/A -18
21:00 N/A -10 76 -13 ESE 19 102.9 N/A -17
20:00 N/A -9   79 -12 ESE 17 102.9 N/A -16
19:00 N/A -9   79 -12 ESE 14 103.0 N/A -16
18:00 N/A -11 75 -14 ESE 9 103.0 N/A -16
17:00 N/A -10 73 -14 ESE 14 103.0 N/A -17
16:00 N/A -11 78 -14 ESE 15 103.0 N/A -18
15:00 N/A -11 83 -14 SE 16 103.0 N/A -19
14:00 N/A -12 82 -14 SE 16 103.0 N/A -19
13:00 N/A -13 84 -15 SE 17 103.0 N/A -21
12:00 N/A -14 84 -16 SE 18 103.0 N/A -22
11:00 N/A -14 85 -16 SE 20 103.0 N/A -23
10:00 N/A -16   87 -17 SE 15 103.0 N/A -24
9:00 N/A -16   89 -17 SE 13 103.0 N/A -23
8:00 N/A -16   89 -18 SE 14 103.0 N/A -24
7:00 N/A -16   89 -17 ESE 17 103.0 N/A -25
6:00 N/A -16   90 -17 ESE 15 103.0 N/A -24
5:00 N/A -16   91 -17 SE 12 103.0 N/A -23
4:00 N/A -15 90 -17 SE 16 103.1 N/A -24
3:00 N/A -14 88 -16 ESE 17 103.0 N/A -23
2:00 N/A -14 82 -16 SE 11 103.0 N/A -20
1:00 N/A -12 75 -15 ESE 8 103.0 N/A -17
00:00 N/A -12 71 -16 ESE 5 103.0 N/A -16
N/A
Not available
 ↑ 
Highest temperature
 ↓ 
Lowest temperature
*
Value not significant.

If you require additional historical weather information, please visit Climate Data Online.